Terminal Aerodrome Forecast
Issued by NWS

Home | Current Version | Previous Version | Text Only | Print | Product List | Glossary On
Versions: 1 2 3 4 5 6 7 8 9 10 11 12 13 14 15 16 17 18 19 20 21 22 23 24 25 26 27 28 29 30 31 32 33 34 35 36 37 38 39 40 41 42 43 44 45 46 47 48 49
000
FTUS44 KHGX 301733
TAFLBX
TAFLBX
TAF
KLBX 301733Z 3018/3118 VRB04KT P6SM VCTS SCT040CB
      TEMPO 3018/3022 VRB05G15KT 3SM TSRA BR
     FM310200 VRB03KT P6SM VCSH SCT020 BKN120
     FM310700 03002KT P6SM SCT020 BKN100
     FM311300 34005KT P6SM SCT090=

USA.gov is the U.S. government's official web portal to all federal, state and local government web resources and services.